sensor_id;sensor_type;location;lat;lon;timestamp;pressure;altitude;pressure_sealevel;temperature;humidity
42125;BME280;27787;44.594;11.046;2023-03-15T00:02:20;99826.00;;;12.95;100.00
42125;BME280;27787;44.594;11.046;2023-03-15T00:05:05;99831.38;;;12.92;100.00
42125;BME280;27787;44.594;11.046;2023-03-15T00:07:50;99827.06;;;12.85;100.00
42125;BME280;27787;44.594;11.046;2023-03-15T00:10:34;99836.75;;;12.86;100.00
42125;BME280;27787;44.594;11.046;2023-03-15T00:13:19;99832.47;;;12.79;100.00
42125;BME280;27787;44.594;11.046;2023-03-15T00:16:04;99837.94;;;12.68;100.00
42125;BME280;27787;44.594;11.046;2023-03-15T00:18:49;99835.31;;;12.66;100.00
42125;BME280;27787;44.594;11.046;2023-03-15T00:21:33;99834.50;;;12.61;100.00
42125;BME280;27787;44.594;11.046;2023-03-15T00:24:18;99840.72;;;12.59;100.00
42125;BME280;27787;44.594;11.046;2023-03-15T00:27:02;99854.88;;;12.58;100.00
42125;BME280;27787;44.594;11.046;2023-03-15T00:29:46;99865.50;;;12.55;100.00
42125;BME280;27787;44.594;11.046;2023-03-15T00:32:30;99869.16;;;12.46;100.00
42125;BME280;27787;44.594;11.046;2023-03-15T00:35:14;99869.22;;;12.43;100.00
42125;BME280;27787;44.594;11.046;2023-03-15T00:38:01;99868.41;;;12.38;100.00
42125;BME280;27787;44.594;11.046;2023-03-15T00:40:47;99871.09;;;12.35;100.00
42125;BME280;27787;44.594;11.046;2023-03-15T00:43:31;99879.03;;;12.33;100.00
42125;BME280;27787;44.594;11.046;2023-03-15T00:46:17;99885.25;;;12.31;100.00
42125;BME280;27787;44.594;11.046;2023-03-15T00:49:02;99894.91;;;12.35;100.00
42125;BME280;27787;44.594;11.046;2023-03-15T00:51:46;99895.78;;;12.37;100.00
42125;BME280;27787;44.594;11.046;2023-03-15T00:54:30;99901.19;;;12.28;100.00
42125;BME280;27787;44.594;11.046;2023-03-15T00:57:16;99910.94;;;12.24;100.00
42125;BME280;27787;44.594;11.046;2023-03-15T01:00:00;99922.44;;;12.20;100.00
42125;BME280;27787;44.594;11.046;2023-03-15T01:02:53;99927.84;;;12.14;100.00
42125;BME280;27787;44.594;11.046;2023-03-15T01:05:38;99935.69;;;12.19;100.00
42125;BME280;27787;44.594;11.046;2023-03-15T01:08:22;99939.31;;;12.10;100.00
42125;BME280;27787;44.594;11.046;2023-03-15T01:11:11;99949.09;;;12.05;100.00
42125;BME280;27787;44.594;11.046;2023-03-15T01:13:57;99958.75;;;12.07;100.00
42125;BME280;27787;44.594;11.046;2023-03-15T01:16:42;99957.13;;;11.99;100.00
42125;BME280;27787;44.594;11.046;2023-03-15T01:19:27;99956.28;;;11.94;100.00
42125;BME280;27787;44.594;11.046;2023-03-15T01:22:11;99951.88;;;11.93;100.00
42125;BME280;27787;44.594;11.046;2023-03-15T01:24:55;99954.53;;;11.93;100.00
42125;BME280;27787;44.594;11.046;2023-03-15T01:27:39;99963.34;;;11.93;100.00
42125;BME280;27787;44.594;11.046;2023-03-15T01:30:23;99970.38;;;11.94;100.00
42125;BME280;27787;44.594;11.046;2023-03-15T01:33:07;99962.47;;;11.93;100.00
42125;BME280;27787;44.594;11.046;2023-03-15T01:36:05;99966.88;;;11.92;100.00
42125;BME280;27787;44.594;11.046;2023-03-15T01:38:51;99970.38;;;11.93;100.00
42125;BME280;27787;44.594;11.046;2023-03-15T01:41:42;99982.69;;;11.95;100.00
42125;BME280;27787;44.594;11.046;2023-03-15T01:47:31;99975.63;;;11.97;100.00
42125;BME280;27787;44.594;11.046;2023-03-15T01:50:16;99976.47;;;12.02;100.00
42125;BME280;27787;44.594;11.046;2023-03-15T01:53:00;99984.38;;;12.04;100.00
42125;BME280;27787;44.594;11.046;2023-03-15T01:55:44;99974.66;;;12.04;100.00
42125;BME280;27787;44.594;11.046;2023-03-15T01:58:32;99980.78;;;12.09;99.59
42125;BME280;27787;44.594;11.046;2023-03-15T02:01:18;99979.03;;;12.07;99.95
42125;BME280;27787;44.594;11.046;2023-03-15T02:04:08;99979.09;;;12.04;98.98
42125;BME280;27787;44.594;11.046;2023-03-15T02:06:59;99987.03;;;12.02;98.84
42125;BME280;27787;44.594;11.046;2023-03-15T02:10:01;99983.56;;;11.99;98.28
42125;BME280;27787;44.594;11.046;2023-03-15T02:12:50;99978.31;;;11.94;98.26
42125;BME280;27787;44.594;11.046;2023-03-15T02:15:35;99977.41;;;11.95;97.07
42125;BME280;27787;44.594;11.046;2023-03-15T02:18:23;99981.84;;;11.93;97.75
42125;BME280;27787;44.594;11.046;2023-03-15T02:27:32;99992.38;;;11.96;96.48
42125;BME280;27787;44.594;11.046;2023-03-15T02:30:18;100001.28;;;11.89;97.05
42125;BME280;27787;44.594;11.046;2023-03-15T02:33:07;100002.16;;;11.90;95.93
42125;BME280;27787;44.594;11.046;2023-03-15T02:35:53;100001.31;;;11.85;96.06
42125;BME280;27787;44.594;11.046;2023-03-15T02:38:37;100008.41;;;11.81;95.64
42125;BME280;27787;44.594;11.046;2023-03-15T02:41:35;100012.88;;;11.71;95.53
42125;BME280;27787;44.594;11.046;2023-03-15T02:44:35;100017.41;;;11.60;95.91
42125;BME280;27787;44.594;11.046;2023-03-15T02:47:25;100007.72;;;11.56;95.51
42125;BME280;27787;44.594;11.046;2023-03-15T02:50:10;100014.84;;;11.51;95.06
42125;BME280;27787;44.594;11.046;2023-03-15T02:52:54;100026.25;;;11.53;94.13
42125;BME280;27787;44.594;11.046;2023-03-15T02:55:39;100033.34;;;11.49;94.40
42125;BME280;27787;44.594;11.046;2023-03-15T02:58:24;100023.69;;;11.42;94.00
42125;BME280;27787;44.594;11.046;2023-03-15T03:01:08;100028.13;;;11.40;93.88
42125;BME280;27787;44.594;11.046;2023-03-15T03:03:53;100031.72;;;11.32;94.17
42125;BME280;27787;44.594;11.046;2023-03-15T03:06:37;100025.56;;;11.28;94.41
42125;BME280;27787;44.594;11.046;2023-03-15T03:09:23;100030.84;;;11.30;93.66
42125;BME280;27787;44.594;11.046;2023-03-15T03:12:08;100035.25;;;11.29;93.86
42125;BME280;27787;44.594;11.046;2023-03-15T03:14:53;100044.94;;;11.29;93.25
42125;BME280;27787;44.594;11.046;2023-03-15T03:17:40;100047.59;;;11.33;92.13
42125;BME280;27787;44.594;11.046;2023-03-15T03:20:24;100051.13;;;11.29;91.94
42125;BME280;27787;44.594;11.046;2023-03-15T03:23:10;100054.66;;;11.25;91.43
42125;BME280;27787;44.594;11.046;2023-03-15T03:25:55;100067.00;;;11.25;90.83
42125;BME280;27787;44.594;11.046;2023-03-15T03:28:42;100065.25;;;11.23;90.93
42125;BME280;27787;44.594;11.046;2023-03-15T03:31:27;100066.09;;;11.27;89.47
42125;BME280;27787;44.594;11.046;2023-03-15T03:34:13;100070.50;;;11.27;88.55
42125;BME280;27787;44.594;11.046;2023-03-15T03:36:58;100070.53;;;11.23;86.44
42125;BME280;27787;44.594;11.046;2023-03-15T03:40:00;100081.13;;;11.22;82.83
42125;BME280;27787;44.594;11.046;2023-03-15T03:42:46;100078.50;;;11.16;83.24
42125;BME280;27787;44.594;11.046;2023-03-15T03:45:31;100082.06;;;11.10;81.51
42125;BME280;27787;44.594;11.046;2023-03-15T03:48:17;100085.59;;;11.06;80.70
42125;BME280;27787;44.594;11.046;2023-03-15T03:51:01;100080.34;;;11.03;79.76
42125;BME280;27787;44.594;11.046;2023-03-15T03:53:45;100084.75;;;11.03;79.46
42125;BME280;27787;44.594;11.046;2023-03-15T03:56:30;100082.09;;;11.04;77.88
42125;BME280;27787;44.594;11.046;2023-03-15T03:59:14;100070.66;;;11.04;77.30
42125;BME280;27787;44.594;11.046;2023-03-15T04:02:07;100069.75;;;11.05;76.07
42125;BME280;27787;44.594;11.046;2023-03-15T04:04:52;100060.94;;;11.06;75.02
42125;BME280;27787;44.594;11.046;2023-03-15T04:07:38;100048.63;;;11.06;75.19
42125;BME280;27787;44.594;11.046;2023-03-15T04:10:23;100068.00;;;11.08;74.12
42125;BME280;27787;44.594;11.046;2023-03-15T04:13:10;100090.84;;;11.15;74.29
42125;BME280;27787;44.594;11.046;2023-03-15T04:15:55;100093.44;;;11.25;72.48
42125;BME280;27787;44.594;11.046;2023-03-15T04:18:48;100090.78;;;11.23;73.12
42125;BME280;27787;44.594;11.046;2023-03-15T04:21:32;100093.47;;;11.17;73.70
42125;BME280;27787;44.594;11.046;2023-03-15T04:24:46;100093.50;;;11.12;72.68
42125;BME280;27787;44.594;11.046;2023-03-15T04:28:09;100096.13;;;11.12;73.18
42125;BME280;27787;44.594;11.046;2023-03-15T04:31:11;100095.28;;;11.07;73.53
42125;BME280;27787;44.594;11.046;2023-03-15T04:34:16;100104.13;;;10.99;73.53
42125;BME280;27787;44.594;11.046;2023-03-15T04:37:25;100101.50;;;10.92;72.42
42125;BME280;27787;44.594;11.046;2023-03-15T04:40:36;100102.47;;;10.82;72.77
42125;BME280;27787;44.594;11.046;2023-03-15T04:43:39;100102.50;;;10.70;73.80
42125;BME280;27787;44.594;11.046;2023-03-15T04:46:42;100097.22;;;10.72;74.28
42125;BME280;27787;44.594;11.046;2023-03-15T04:49:34;100104.25;;;10.74;73.72
42125;BME280;27787;44.594;11.046;2023-03-15T04:52:48;100099.84;;;10.73;74.21
42125;BME280;27787;44.594;11.046;2023-03-15T04:55:52;100095.47;;;10.66;73.92
42125;BME280;27787;44.594;11.046;2023-03-15T04:58:58;100096.38;;;10.68;70.10
42125;BME280;27787;44.594;11.046;2023-03-15T05:02:03;100095.44;;;10.72;72.08
42125;BME280;27787;44.594;11.046;2023-03-15T05:04:52;100090.16;;;10.75;72.76
42125;BME280;27787;44.594;11.046;2023-03-15T05:07:55;100102.47;;;10.78;71.57
42125;BME280;27787;44.594;11.046;2023-03-15T05:10:55;100108.59;;;10.84;71.12
42125;BME280;27787;44.594;11.046;2023-03-15T05:13:56;100113.84;;;10.92;72.12
42125;BME280;27787;44.594;11.046;2023-03-15T05:16:55;100109.44;;;10.97;73.67
42125;BME280;27787;44.594;11.046;2023-03-15T05:19:59;100112.94;;;10.99;73.68
42125;BME280;27787;44.594;11.046;2023-03-15T05:23:13;100101.53;;;10.96;72.60
42125;BME280;27787;44.594;11.046;2023-03-15T05:26:03;100102.41;;;10.91;71.75
42125;BME280;27787;44.594;11.046;2023-03-15T05:29:07;100114.72;;;10.89;71.20
42125;BME280;27787;44.594;11.046;2023-03-15T05:32:11;100123.53;;;10.91;70.78
42125;BME280;27787;44.594;11.046;2023-03-15T05:35:07;100124.41;;;10.95;70.92
42125;BME280;27787;44.594;11.046;2023-03-15T05:37:59;100123.53;;;10.96;71.72
42125;BME280;27787;44.594;11.046;2023-03-15T05:41:22;100126.16;;;10.91;71.46
42125;BME280;27787;44.594;11.046;2023-03-15T05:44:13;100142.94;;;10.84;69.87
42125;BME280;27787;44.594;11.046;2023-03-15T05:47:16;100136.78;;;10.82;67.99
42125;BME280;27787;44.594;11.046;2023-03-15T05:50:26;100149.97;;;10.82;68.50
42125;BME280;27787;44.594;11.046;2023-03-15T05:53:34;100150.88;;;10.74;70.84
42125;BME280;27787;44.594;11.046;2023-03-15T05:56:42;100150.88;;;10.66;71.83
42125;BME280;27787;44.594;11.046;2023-03-15T05:59:29;100152.66;;;10.66;70.60
42125;BME280;27787;44.594;11.046;2023-03-15T06:02:44;100164.09;;;10.63;71.57
42125;BME280;27787;44.594;11.046;2023-03-15T06:05:50;100170.25;;;10.62;72.08
42125;BME280;27787;44.594;11.046;2023-03-15T06:08:41;100174.69;;;10.60;70.50
42125;BME280;27787;44.594;11.046;2023-03-15T06:11:25;100176.44;;;10.56;67.49
42125;BME280;27787;44.594;11.046;2023-03-15T06:14:10;100182.59;;;10.57;65.13
42125;BME280;27787;44.594;11.046;2023-03-15T06:17:02;100190.50;;;10.64;62.39
42125;BME280;27787;44.594;11.046;2023-03-15T06:19:48;100201.03;;;10.72;58.15
42125;BME280;27787;44.594;11.046;2023-03-15T06:22:35;100205.41;;;10.79;55.20
42125;BME280;27787;44.594;11.046;2023-03-15T06:25:26;100201.03;;;10.81;54.40
42125;BME280;27787;44.594;11.046;2023-03-15T06:28:11;100216.88;;;10.81;50.53
42125;BME280;27787;44.594;11.046;2023-03-15T06:31:09;100215.09;;;10.80;48.95
42125;BME280;27787;44.594;11.046;2023-03-15T06:34:03;100220.34;;;10.89;47.64
42125;BME280;27787;44.594;11.046;2023-03-15T06:36:48;100222.09;;;10.90;46.86
42125;BME280;27787;44.594;11.046;2023-03-15T06:39:35;100221.25;;;10.95;46.51
42125;BME280;27787;44.594;11.046;2023-03-15T06:42:19;100222.97;;;10.91;45.45
42125;BME280;27787;44.594;11.046;2023-03-15T06:45:05;100234.44;;;10.98;44.39
42125;BME280;27787;44.594;11.046;2023-03-15T06:47:49;100242.34;;;10.93;43.67
42125;BME280;27787;44.594;11.046;2023-03-15T06:50:34;100252.03;;;10.92;42.99
42125;BME280;27787;44.594;11.046;2023-03-15T06:53:18;100255.53;;;10.91;43.10
42125;BME280;27787;44.594;11.046;2023-03-15T06:56:03;100252.03;;;10.89;42.42
42125;BME280;27787;44.594;11.046;2023-03-15T06:58:47;100251.19;;;10.81;43.17
42125;BME280;27787;44.594;11.046;2023-03-15T07:01:31;100257.34;;;10.76;43.82
42125;BME280;27787;44.594;11.046;2023-03-15T07:04:16;100252.06;;;10.74;43.02
42125;BME280;27787;44.594;11.046;2023-03-15T07:07:00;100246.81;;;10.71;43.61
42125;BME280;27787;44.594;11.046;2023-03-15T07:09:44;100258.22;;;10.76;42.78
42125;BME280;27787;44.594;11.046;2023-03-15T07:12:29;100268.78;;;10.73;42.51
42125;BME280;27787;44.594;11.046;2023-03-15T07:15:13;100260.00;;;10.68;43.44
42125;BME280;27787;44.594;11.046;2023-03-15T07:17:57;100257.38;;;10.68;43.01
42125;BME280;27787;44.594;11.046;2023-03-15T07:20:41;100282.00;;;10.70;42.56
42125;BME280;27787;44.594;11.046;2023-03-15T07:23:26;100268.78;;;10.73;43.08
42125;BME280;27787;44.594;11.046;2023-03-15T07:26:10;100279.34;;;10.75;43.23
42125;BME280;27787;44.594;11.046;2023-03-15T07:28:54;100271.41;;;10.76;43.23
42125;BME280;27787;44.594;11.046;2023-03-15T07:31:38;100292.53;;;10.84;43.67
42125;BME280;27787;44.594;11.046;2023-03-15T07:34:22;100284.63;;;10.82;43.66
42125;BME280;27787;44.594;11.046;2023-03-15T07:37:06;100296.94;;;10.79;43.75
42125;BME280;27787;44.594;11.046;2023-03-15T07:39:51;100298.69;;;10.75;44.76
42125;BME280;27787;44.594;11.046;2023-03-15T07:42:36;100308.41;;;10.82;44.20
42125;BME280;27787;44.594;11.046;2023-03-15T07:45:20;100309.28;;;10.83;42.95
42125;BME280;27787;44.594;11.046;2023-03-15T07:48:04;100316.31;;;10.84;42.53
42125;BME280;27787;44.594;11.046;2023-03-15T07:50:48;100306.63;;;10.83;43.43
42125;BME280;27787;44.594;11.046;2023-03-15T07:53:33;100320.69;;;10.86;43.43
42125;BME280;27787;44.594;11.046;2023-03-15T07:56:16;100312.78;;;10.96;43.06
42125;BME280;27787;44.594;11.046;2023-03-15T07:59:02;100328.59;;;11.02;42.69
42125;BME280;27787;44.594;11.046;2023-03-15T08:01:46;100325.94;;;11.05;42.71
42125;BME280;27787;44.594;11.046;2023-03-15T08:04:30;100342.69;;;11.11;40.98
42125;BME280;27787;44.594;11.046;2023-03-15T08:07:14;100332.13;;;11.11;42.75
42125;BME280;27787;44.594;11.046;2023-03-15T08:09:58;100345.28;;;11.19;41.82
42125;BME280;27787;44.594;11.046;2023-03-15T08:12:43;100340.00;;;11.25;40.95
42125;BME280;27787;44.594;11.046;2023-03-15T08:15:28;100334.69;;;11.30;41.48
42125;BME280;27787;44.594;11.046;2023-03-15T08:18:13;100347.91;;;11.37;41.55
42125;BME280;27787;44.594;11.046;2023-03-15T08:20:57;100372.56;;;11.36;42.14
42125;BME280;27787;44.594;11.046;2023-03-15T08:23:41;100338.19;;;11.41;42.32
42125;BME280;27787;44.594;11.046;2023-03-15T08:26:25;100349.66;;;11.46;42.59
42125;BME280;27787;44.594;11.046;2023-03-15T08:29:10;100336.38;;;11.55;42.88
42125;BME280;27787;44.594;11.046;2023-03-15T08:31:54;100349.59;;;11.63;44.11
42125;BME280;27787;44.594;11.046;2023-03-15T08:34:39;100359.25;;;11.73;40.70
42125;BME280;27787;44.594;11.046;2023-03-15T08:37:24;100350.41;;;11.77;43.05
42125;BME280;27787;44.594;11.046;2023-03-15T08:40:10;100356.59;;;11.80;42.34
42125;BME280;27787;44.594;11.046;2023-03-15T08:42:55;100360.97;;;11.89;42.17
42125;BME280;27787;44.594;11.046;2023-03-15T08:45:39;100368.03;;;11.89;42.00
42125;BME280;27787;44.594;11.046;2023-03-15T08:48:25;100376.81;;;11.94;42.06
42125;BME280;27787;44.594;11.046;2023-03-15T08:51:09;100384.72;;;12.01;42.64
42125;BME280;27787;44.594;11.046;2023-03-15T08:53:54;100393.50;;;12.11;42.04
42125;BME280;27787;44.594;11.046;2023-03-15T08:56:38;100386.44;;;12.13;42.39
42125;BME280;27787;44.594;11.046;2023-03-15T08:59:22;100388.13;;;12.22;42.25
42125;BME280;27787;44.594;11.046;2023-03-15T09:02:09;100415.47;;;12.27;42.07
42125;BME280;27787;44.594;11.046;2023-03-15T09:04:54;100408.41;;;12.23;42.61
42125;BME280;27787;44.594;11.046;2023-03-15T09:07:38;100409.28;;;12.29;42.16
42125;BME280;27787;44.594;11.046;2023-03-15T09:10:25;100427.78;;;12.34;42.60
42125;BME280;27787;44.594;11.046;2023-03-15T09:13:09;100431.28;;;12.36;42.04
42125;BME280;27787;44.594;11.046;2023-03-15T09:15:54;100428.63;;;12.42;44.35
42125;BME280;27787;44.594;11.046;2023-03-15T09:18:39;100445.31;;;12.56;42.87
42125;BME280;27787;44.594;11.046;2023-03-15T09:21:23;100428.56;;;12.54;42.66
42125;BME280;27787;44.594;11.046;2023-03-15T09:24:08;100432.94;;;12.57;44.14
42125;BME280;27787;44.594;11.046;2023-03-15T09:26:52;100443.47;;;12.67;43.66
42125;BME280;27787;44.594;11.046;2023-03-15T09:29:36;100439.06;;;12.68;42.82
42125;BME280;27787;44.594;11.046;2023-03-15T09:32:21;100448.78;;;12.67;42.54
42125;BME280;27787;44.594;11.046;2023-03-15T09:35:07;100459.38;;;12.67;42.26
42125;BME280;27787;44.594;11.046;2023-03-15T09:37:53;100472.56;;;12.72;41.91
42125;BME280;27787;44.594;11.046;2023-03-15T09:40:40;100472.63;;;12.66;42.31
42125;BME280;27787;44.594;11.046;2023-03-15T09:46:36;100471.78;;;12.58;44.24
42125;BME280;27787;44.594;11.046;2023-03-15T09:49:38;100474.41;;;12.59;44.33
42125;BME280;27787;44.594;11.046;2023-03-15T09:52:34;100470.88;;;12.57;45.32
42125;BME280;27787;44.594;11.046;2023-03-15T09:55:26;100476.16;;;12.63;43.46
42125;BME280;27787;44.594;11.046;2023-03-15T09:58:34;100476.19;;;12.57;44.17
42125;BME280;27787;44.594;11.046;2023-03-15T10:01:33;100473.53;;;12.63;44.81
42125;BME280;27787;44.594;11.046;2023-03-15T10:04:26;100484.09;;;12.66;45.25
42125;BME280;27787;44.594;11.046;2023-03-15T10:07:12;100480.50;;;12.75;44.71
42125;BME280;27787;44.594;11.046;2023-03-15T10:09:57;100490.13;;;12.88;43.99
42125;BME280;27787;44.594;11.046;2023-03-15T10:12:50;100479.53;;;12.90;43.01
42125;BME280;27787;44.594;11.046;2023-03-15T10:16:31;100482.97;;;13.01;43.74
42125;BME280;27787;44.594;11.046;2023-03-15T10:27:36;100513.78;;;13.20;48.72
42125;BME280;27787;44.594;11.046;2023-03-15T10:30:46;100522.56;;;13.30;53.21
42125;BME280;27787;44.594;11.046;2023-03-15T10:33:37;100536.59;;;13.40;55.76
42125;BME280;27787;44.594;11.046;2023-03-15T10:36:24;100539.25;;;13.44;57.24
42125;BME280;27787;44.594;11.046;2023-03-15T10:39:10;100543.56;;;13.53;57.64
42125;BME280;27787;44.594;11.046;2023-03-15T10:41:54;100541.78;;;13.58;54.56
42125;BME280;27787;44.594;11.046;2023-03-15T10:44:39;100545.31;;;13.54;54.34
42125;BME280;27787;44.594;11.046;2023-03-15T10:47:24;100540.84;;;13.64;56.16
42125;BME280;27787;44.594;11.046;2023-03-15T10:50:16;100547.75;;;13.81;57.92
42125;BME280;27787;44.594;11.046;2023-03-15T10:53:08;100556.59;;;13.83;56.08
42125;BME280;27787;44.594;11.046;2023-03-15T10:56:00;100574.31;;;13.78;55.37
42125;BME280;27787;44.594;11.046;2023-03-15T10:58:46;100577.91;;;13.73;55.16
42125;BME280;27787;44.594;11.046;2023-03-15T11:01:32;100572.66;;;13.64;55.06
42125;BME280;27787;44.594;11.046;2023-03-15T11:04:23;100575.34;;;13.61;55.14
42125;BME280;27787;44.594;11.046;2023-03-15T11:07:09;100562.06;;;13.64;55.48
42125;BME280;27787;44.594;11.046;2023-03-15T11:10:02;100579.72;;;13.68;55.58
42125;BME280;27787;44.594;11.046;2023-03-15T11:12:46;100582.34;;;13.66;54.37
42125;BME280;27787;44.594;11.046;2023-03-15T11:15:30;100580.63;;;13.62;53.94
42125;BME280;27787;44.594;11.046;2023-03-15T11:18:19;100583.34;;;13.53;53.82
42125;BME280;27787;44.594;11.046;2023-03-15T11:21:11;100573.66;;;13.49;53.81
42125;BME280;27787;44.594;11.046;2023-03-15T11:24:00;100568.44;;;13.41;53.90
42125;BME280;27787;44.594;11.046;2023-03-15T11:26:45;100565.78;;;13.38;53.49
42125;BME280;27787;44.594;11.046;2023-03-15T11:29:36;100568.44;;;13.37;53.73
42125;BME280;27787;44.594;11.046;2023-03-15T11:32:24;100558.72;;;13.42;53.97
42125;BME280;27787;44.594;11.046;2023-03-15T11:35:16;100563.09;;;13.46;53.91
42125;BME280;27787;44.594;11.046;2023-03-15T11:38:12;100562.16;;;13.50;53.38
42125;BME280;27787;44.594;11.046;2023-03-15T11:40:58;100567.47;;;13.54;52.81
42125;BME280;27787;44.594;11.046;2023-03-15T11:43:55;100565.63;;;13.60;53.21
42125;BME280;27787;44.594;11.046;2023-03-15T11:46:46;100569.97;;;13.70;53.73
42125;BME280;27787;44.594;11.046;2023-03-15T11:52:30;100570.69;;;13.88;53.74
42125;BME280;27787;44.594;11.046;2023-03-15T11:55:18;100583.88;;;13.98;53.86
42125;BME280;27787;44.594;11.046;2023-03-15T11:58:27;100593.50;;;14.09;54.17
42125;BME280;27787;44.594;11.046;2023-03-15T12:01:24;100591.53;;;14.27;54.29
42125;BME280;27787;44.594;11.046;2023-03-15T12:12:47;100600.94;;;14.58;52.49
42125;BME280;27787;44.594;11.046;2023-03-15T12:15:41;100604.41;;;14.66;51.08
42125;BME280;27787;44.594;11.046;2023-03-15T12:18:37;100607.88;;;14.73;50.93
42125;BME280;27787;44.594;11.046;2023-03-15T12:21:32;100611.50;;;14.66;57.59
42125;BME280;27787;44.594;11.046;2023-03-15T12:24:27;100625.00;;;14.48;60.29
42125;BME280;27787;44.594;11.046;2023-03-15T12:27:16;100632.31;;;14.21;61.77
42125;BME280;27787;44.594;11.046;2023-03-15T12:30:01;100619.28;;;13.97;63.14
42125;BME280;27787;44.594;11.046;2023-03-15T12:32:49;100632.63;;;13.86;64.50
42125;BME280;27787;44.594;11.046;2023-03-15T12:35:39;100637.06;;;13.84;66.40
42125;BME280;27787;44.594;11.046;2023-03-15T12:38:24;100619.38;;;13.80;66.86
42125;BME280;27787;44.594;11.046;2023-03-15T12:41:40;100631.78;;;13.78;67.79
42125;BME280;27787;44.594;11.046;2023-03-15T12:47:16;100631.00;;;13.65;67.32
42125;BME280;27787;44.594;11.046;2023-03-15T12:56:44;100647.84;;;13.61;68.73
42125;BME280;27787;44.594;11.046;2023-03-15T12:59:59;100637.25;;;13.58;68.18
42125;BME280;27787;44.594;11.046;2023-03-15T13:02:53;100631.97;;;13.56;68.38
42125;BME280;27787;44.594;11.046;2023-03-15T13:12:13;100622.22;;;13.58;68.28
42125;BME280;27787;44.594;11.046;2023-03-15T13:15:18;100623.09;;;13.59;67.75
42125;BME280;27787;44.594;11.046;2023-03-15T13:18:21;100619.56;;;13.60;66.80
42125;BME280;27787;44.594;11.046;2023-03-15T13:21:19;100625.78;;;13.53;66.38
42125;BME280;27787;44.594;11.046;2023-03-15T13:24:11;100634.63;;;13.53;66.19
42125;BME280;27787;44.594;11.046;2023-03-15T13:27:10;100631.09;;;13.53;66.64
42125;BME280;27787;44.594;11.046;2023-03-15T13:29:56;100638.16;;;13.55;67.35
42125;BME280;27787;44.594;11.046;2023-03-15T13:32:42;100636.34;;;13.61;67.50
42125;BME280;27787;44.594;11.046;2023-03-15T13:35:26;100633.66;;;13.64;67.44
42125;BME280;27787;44.594;11.046;2023-03-15T13:41:24;100644.25;;;13.65;66.27
42125;BME280;27787;44.594;11.046;2023-03-15T13:44:21;100641.63;;;13.68;65.44
42125;BME280;27787;44.594;11.046;2023-03-15T13:47:06;100645.13;;;13.70;64.68
42125;BME280;27787;44.594;11.046;2023-03-15T13:49:51;100652.16;;;13.74;64.50
42125;BME280;27787;44.594;11.046;2023-03-15T13:52:35;100653.03;;;13.75;64.32
42125;BME280;27787;44.594;11.046;2023-03-15T13:55:22;100653.03;;;13.76;63.62
42125;BME280;27787;44.594;11.046;2023-03-15T13:58:08;100655.66;;;13.78;62.96
42125;BME280;27787;44.594;11.046;2023-03-15T14:01:00;100665.41;;;13.80;62.14
42125;BME280;27787;44.594;11.046;2023-03-15T14:03:52;100659.19;;;13.83;61.83
42125;BME280;27787;44.594;11.046;2023-03-15T14:06:37;100660.91;;;13.87;61.61
42125;BME280;27787;44.594;11.046;2023-03-15T14:09:24;100670.66;;;13.86;62.00
42125;BME280;27787;44.594;11.046;2023-03-15T14:12:18;100668.81;;;13.93;61.31
42125;BME280;27787;44.594;11.046;2023-03-15T14:15:17;100668.75;;;14.01;61.08
42125;BME280;27787;44.594;11.046;2023-03-15T14:24:05;100673.94;;;14.16;60.03
42125;BME280;27787;44.594;11.046;2023-03-15T14:26:52;100659.75;;;14.17;60.10
42125;BME280;27787;44.594;11.046;2023-03-15T14:29:48;100667.72;;;14.22;60.02
42125;BME280;27787;44.594;11.046;2023-03-15T14:32:33;100672.06;;;14.29;59.59
42125;BME280;27787;44.594;11.046;2023-03-15T14:35:27;100678.16;;;14.40;59.10
42125;BME280;27787;44.594;11.046;2023-03-15T14:38:23;100680.75;;;14.51;58.29
42125;BME280;27787;44.594;11.046;2023-03-15T14:41:22;100684.19;;;14.60;57.76
42125;BME280;27787;44.594;11.046;2023-03-15T14:44:08;100677.94;;;14.64;56.71
42125;BME280;27787;44.594;11.046;2023-03-15T14:46:52;100677.06;;;14.64;56.61
42125;BME280;27787;44.594;11.046;2023-03-15T14:49:37;100682.31;;;14.67;56.70
42125;BME280;27787;44.594;11.046;2023-03-15T14:52:23;100672.53;;;14.70;56.63
42125;BME280;27787;44.594;11.046;2023-03-15T14:55:12;100674.28;;;14.74;56.65
42125;BME280;27787;44.594;11.046;2023-03-15T14:57:57;100679.50;;;14.85;56.22
42125;BME280;27787;44.594;11.046;2023-03-15T15:00:44;100674.06;;;14.93;55.84
42125;BME280;27787;44.594;11.046;2023-03-15T15:03:35;100674.81;;;15.04;55.77
42125;BME280;27787;44.594;11.046;2023-03-15T15:06:25;100673.84;;;15.11;55.30
42125;BME280;27787;44.594;11.046;2023-03-15T15:09:11;100677.22;;;15.22;54.77
42125;BME280;27787;44.594;11.046;2023-03-15T15:11:55;100678.00;;;15.32;54.12
42125;BME280;27787;44.594;11.046;2023-03-15T15:14:40;100683.19;;;15.41;53.09
42125;BME280;27787;44.594;11.046;2023-03-15T15:17:25;100673.31;;;15.49;52.64
42125;BME280;27787;44.594;11.046;2023-03-15T15:20:11;100684.84;;;15.51;52.63
42125;BME280;27787;44.594;11.046;2023-03-15T15:22:55;100687.44;;;15.54;52.01
42125;BME280;27787;44.594;11.046;2023-03-15T15:25:40;100683.81;;;15.63;52.05
42125;BME280;27787;44.594;11.046;2023-03-15T15:28:25;100679.25;;;15.71;51.28
42125;BME280;27787;44.594;11.046;2023-03-15T15:31:14;100676.53;;;15.74;51.61
42125;BME280;27787;44.594;11.046;2023-03-15T15:33:58;100680.91;;;15.80;52.05